Time;durP1;ratioP1;P1;durP2;ratioP2;P2;SDS_P1;SDS_P2;PMS_P1;PMS_P2;Temp;Humidity;BMP_temperature;BMP_pressure;BME280_temperature;BME280_humidity;BME280_pressure;Samples;Min_cycle;Max_cycle;Signal;HPM_P1;HPM_P2
2022/11/09 00:01:23;;;;;;;2.20;1.67;;;17.00;59.60;;;;;;5064092;28;46361;-78
2022/11/09 00:03:54;;;;;;;2.78;1.73;;;17.00;59.70;;;;;;5047632;28;45253;-78
2022/11/09 00:06:21;;;;;;;1.80;1.60;;;17.10;59.70;;;;;;5047579;28;45265;-79
2022/11/09 00:08:53;;;;;;;2.50;1.90;;;17.10;59.60;;;;;;5047882;28;45454;-78
2022/11/09 00:11:20;;;;;;;2.83;2.25;;;17.10;59.70;;;;;;5047426;28;45419;-78
2022/11/09 00:13:48;;;;;;;2.03;1.55;;;17.10;59.70;;;;;;5046817;28;45206;-78
2022/11/09 00:16:18;;;;;;;3.58;2.08;;;17.10;59.70;;;;;;5047539;28;45214;-78
2022/11/09 00:18:46;;;;;;;2.85;1.70;;;17.10;59.60;;;;;;5047734;28;45229;-78
2022/11/09 00:21:14;;;;;;;1.90;1.70;;;17.10;59.70;;;;;;5047197;28;45279;-79
2022/11/09 00:23:41;;;;;;;3.05;1.98;;;17.10;59.70;;;;;;5047360;28;45276;-78
2022/11/09 00:26:09;;;;;;;2.95;1.90;;;17.10;59.60;;;;;;5047368;28;45317;-78
2022/11/09 00:28:36;;;;;;;1.85;1.60;;;17.10;59.60;;;;;;5047587;28;45227;-78
2022/11/09 00:31:05;;;;;;;2.00;1.70;;;17.10;59.60;;;;;;5047231;28;45475;-77
2022/11/09 00:33:33;;;;;;;2.45;1.95;;;17.10;59.60;;;;;;5047377;28;45346;-79
2022/11/09 00:36:06;;;;;;;1.77;1.67;;;17.10;59.60;;;;;;5047314;28;45285;-78
2022/11/09 00:38:33;;;;;;;1.75;1.60;;;17.10;59.60;;;;;;5047648;28;45377;-78
2022/11/09 00:41:00;;;;;;;2.00;1.60;;;17.10;59.70;;;;;;5046745;28;47587;-78
2022/11/09 00:43:27;;;;;;;1.60;1.50;;;17.10;59.60;;;;;;5047067;28;45220;-79
2022/11/09 00:45:54;;;;;;;2.13;1.73;;;17.10;59.70;;;;;;5054830;28;45183;-78
2022/11/09 00:48:21;;;;;;;1.75;1.65;;;17.10;60.40;;;;;;5067761;28;45495;-79
2022/11/09 00:50:51;;;;;;;2.25;1.48;;;17.10;59.70;;;;;;5067139;28;46696;-79
2022/11/09 00:53:18;;;;;;;2.35;1.48;;;17.00;59.70;;;;;;5067234;28;45333;-79
2022/11/09 00:55:54;;;;;;;2.00;1.63;;;17.00;59.70;;;;;;5067222;28;45233;-80
2022/11/09 00:58:21;;;;;;;1.98;1.50;;;17.00;59.70;;;;;;5067585;28;45187;-79
2022/11/09 01:00:48;;;;;;;2.67;1.50;;;17.10;59.80;;;;;;5067035;28;45382;-79
2022/11/09 01:03:15;;;;;;;1.85;1.60;;;17.00;59.80;;;;;;5047266;28;45252;-78
2022/11/09 01:05:42;;;;;;;2.50;1.73;;;17.00;59.80;;;;;;5045719;28;45204;-78
2022/11/09 01:08:10;;;;;;;1.75;1.63;;;17.00;59.80;;;;;;5047191;28;45335;-78
2022/11/09 01:10:40;;;;;;;1.67;1.58;;;17.00;59.80;;;;;;5046646;28;47588;-78
2022/11/09 01:13:07;;;;;;;1.55;1.33;;;17.00;59.80;;;;;;5046750;28;45257;-78
2022/11/09 01:15:34;;;;;;;1.85;1.75;;;17.00;59.80;;;;;;5046821;28;45223;-78
2022/11/09 01:18:01;;;;;;;1.58;1.40;;;17.00;59.80;;;;;;5047027;28;45310;-78
2022/11/09 01:20:28;;;;;;;1.90;1.42;;;17.00;59.90;;;;;;5046292;28;47561;-78
2022/11/09 01:22:55;;;;;;;2.10;1.80;;;17.00;59.90;;;;;;5046575;28;45387;-78
2022/11/09 01:25:23;;;;;;;2.45;1.70;;;17.00;59.90;;;;;;5046736;28;45295;-79
2022/11/09 01:27:50;;;;;;;1.98;1.60;;;16.90;59.90;;;;;;5046745;28;45183;-78
2022/11/09 01:30:17;;;;;;;1.95;1.35;;;16.90;60.00;;;;;;5046439;28;45489;-79
2022/11/09 01:32:43;;;;;;;1.80;1.42;;;16.90;60.00;;;;;;5046673;28;45302;-78
2022/11/09 01:35:11;;;;;;;1.75;1.55;;;17.00;60.00;;;;;;5046586;28;45293;-78
2022/11/09 01:37:37;;;;;;;1.77;1.25;;;16.90;60.00;;;;;;5046839;28;45480;-78
2022/11/09 01:40:05;;;;;;;2.33;1.60;;;16.90;60.00;;;;;;5046087;28;46698;-77
2022/11/09 01:42:35;;;;;;;1.80;1.67;;;16.90;59.90;;;;;;5046073;28;45362;-77
2022/11/09 01:45:23;;;;;;;1.63;1.50;;;16.90;60.00;;;;;;5046831;28;45261;-77
2022/11/09 01:47:52;;;;;;;1.63;1.42;;;16.90;60.00;;;;;;5066875;28;45221;-77
2022/11/09 01:50:22;;;;;;;1.23;1.13;;;16.90;60.00;;;;;;5066403;28;46390;-77
2022/11/09 01:52:48;;;;;;;1.95;1.50;;;16.90;60.00;;;;;;5066385;28;45290;-76
2022/11/09 01:55:16;;;;;;;1.40;1.30;;;16.90;60.00;;;;;;5066288;28;45242;-75
2022/11/09 01:57:45;;;;;;;2.15;1.60;;;16.90;60.00;;;;;;5066287;28;45400;-73
2022/11/09 02:00:14;;;;;;;1.20;1.10;;;16.90;60.00;;;;;;5065329;28;47507;-75
2022/11/09 02:02:42;;;;;;;1.63;1.40;;;16.90;60.00;;;;;;5051841;28;45341;-75
2022/11/09 02:05:12;;;;;;;2.05;1.38;;;16.90;60.00;;;;;;5046212;28;45456;-75
2022/11/09 02:07:39;;;;;;;1.55;1.20;;;16.90;60.00;;;;;;5046087;28;45325;-74
2022/11/09 02:10:08;;;;;;;1.50;1.40;;;16.90;60.10;;;;;;5045765;28;46381;-75
2022/11/09 02:12:35;;;;;;;1.67;1.58;;;16.90;60.10;;;;;;5045879;28;45285;-74
2022/11/09 02:15:05;;;;;;;1.92;1.38;;;16.90;60.10;;;;;;5046599;28;45217;-74
2022/11/09 02:17:32;;;;;;;2.35;1.40;;;16.90;60.10;;;;;;5049817;28;45298;-75
2022/11/09 02:19:59;;;;;;;1.50;1.30;;;16.90;60.10;;;;;;5049221;28;45366;-75
2022/11/09 02:22:27;;;;;;;2.08;1.40;;;16.90;60.10;;;;;;5049155;28;45424;-75
2022/11/09 02:24:54;;;;;;;1.58;1.48;;;16.90;60.10;;;;;;5049336;28;45270;-74
2022/11/09 02:27:21;;;;;;;1.60;1.50;;;16.90;60.20;;;;;;5049443;28;45224;-75
2022/11/09 02:29:48;;;;;;;1.40;1.30;;;16.90;60.20;;;;;;5049079;28;45368;-74
2022/11/09 02:32:17;;;;;;;1.52;1.30;;;16.80;60.20;;;;;;5049049;28;45285;-75
2022/11/09 02:34:44;;;;;;;1.52;1.33;;;16.90;60.20;;;;;;5049018;28;45219;-75
2022/11/09 02:37:11;;;;;;;1.25;1.15;;;16.90;60.20;;;;;;5049297;28;45247;-75
2022/11/09 02:39:39;;;;;;;1.63;1.40;;;16.90;60.20;;;;;;5048891;28;45584;-74
2022/11/09 02:42:09;;;;;;;1.48;1.25;;;16.80;60.90;;;;;;5047830;28;45329;-75
2022/11/09 02:44:38;;;;;;;1.75;1.52;;;16.90;60.30;;;;;;5047980;28;45219;-75
2022/11/09 02:47:05;;;;;;;2.60;1.80;;;16.90;60.40;;;;;;5065582;28;45405;-75
2022/11/09 02:49:32;;;;;;;2.20;1.10;;;16.80;60.30;;;;;;5067909;28;46408;-75
2022/11/09 02:51:59;;;;;;;1.38;1.25;;;16.80;60.40;;;;;;5067809;28;45294;-75
2022/11/09 02:54:26;;;;;;;2.33;1.58;;;16.80;60.40;;;;;;5068031;28;45244;-75
2022/11/09 02:56:54;;;;;;;1.70;1.60;;;16.80;60.50;;;;;;5067926;28;45492;-75
2022/11/09 02:59:21;;;;;;;1.45;1.27;;;16.80;60.40;;;;;;5067811;28;46477;-75
2022/11/09 03:01:48;;;;;;;1.92;1.52;;;16.80;61.10;;;;;;5060917;28;45301;-75
2022/11/09 03:04:15;;;;;;;2.10;1.50;;;16.80;60.40;;;;;;5047577;28;45197;-75
2022/11/09 03:06:42;;;;;;;1.50;1.40;;;16.80;60.50;;;;;;5047834;28;45221;-75
2022/11/09 03:09:10;;;;;;;1.30;1.20;;;16.80;60.60;;;;;;5047275;28;46382;-75
2022/11/09 03:11:37;;;;;;;1.27;1.20;;;16.80;60.50;;;;;;5047317;28;45238;-75
2022/11/09 03:14:06;;;;;;;1.33;1.10;;;16.80;60.60;;;;;;5047406;28;45260;-75
2022/11/09 03:16:32;;;;;;;1.25;1.15;;;16.80;60.60;;;;;;5047613;28;45451;-75
2022/11/09 03:19:00;;;;;;;1.20;1.10;;;16.80;60.70;;;;;;5047066;28;45272;-75
2022/11/09 03:21:27;;;;;;;1.27;1.00;;;16.80;60.60;;;;;;5047279;28;45296;-75
2022/11/09 03:23:55;;;;;;;1.98;1.20;;;16.80;60.50;;;;;;5047288;28;45264;-75
2022/11/09 03:26:21;;;;;;;1.90;1.15;;;16.80;60.60;;;;;;5047123;28;45638;-75
2022/11/09 03:28:48;;;;;;;1.23;1.17;;;16.80;60.50;;;;;;5046568;28;48153;-75
2022/11/09 03:31:16;;;;;;;2.05;1.10;;;16.80;60.70;;;;;;5047010;28;45251;-75
2022/11/09 03:33:43;;;;;;;1.08;0.98;;;16.80;60.70;;;;;;5047201;28;45270;-75
2022/11/09 03:36:10;;;;;;;1.25;1.10;;;16.80;60.60;;;;;;5047159;28;45465;-75
2022/11/09 03:38:37;;;;;;;1.40;1.30;;;16.80;60.70;;;;;;5047090;28;47430;-75
2022/11/09 03:41:04;;;;;;;1.42;1.30;;;16.80;60.70;;;;;;5046580;28;45314;-75
2022/11/09 03:43:31;;;;;;;1.80;1.40;;;16.80;60.60;;;;;;5046927;28;45269;-74
2022/11/09 03:45:58;;;;;;;2.03;1.30;;;16.80;60.70;;;;;;5055290;28;45427;-74
2022/11/09 03:48:26;;;;;;;1.70;1.20;;;16.80;60.70;;;;;;5066899;28;46474;-74
2022/11/09 03:50:53;;;;;;;1.08;0.95;;;16.80;60.70;;;;;;5066990;28;45304;-74
2022/11/09 03:53:20;;;;;;;1.27;1.00;;;16.80;60.70;;;;;;5067042;28;45240;-74
2022/11/09 03:55:47;;;;;;;1.30;1.20;;;16.80;60.70;;;;;;5067060;28;45309;-74
2022/11/09 03:58:14;;;;;;;1.20;1.10;;;16.80;60.80;;;;;;5066665;28;46405;-75
2022/11/09 04:00:41;;;;;;;1.27;1.17;;;16.80;60.90;;;;;;5066707;28;45271;-75
2022/11/09 04:03:07;;;;;;;2.35;1.10;;;16.70;60.80;;;;;;5048750;28;45202;-75
2022/11/09 04:05:36;;;;;;;0.85;0.82;;;16.70;60.70;;;;;;5046745;28;45399;-75
2022/11/09 04:08:02;;;;;;;1.10;1.00;;;16.70;60.80;;;;;;5046604;28;45309;-75
2022/11/09 04:10:29;;;;;;;1.10;1.00;;;16.70;60.80;;;;;;5046430;28;45209;-75
2022/11/09 04:12:56;;;;;;;1.67;1.33;;;16.70;60.70;;;;;;5046563;28;45204;-75
2022/11/09 04:15:23;;;;;;;1.52;1.27;;;16.70;60.70;;;;;;5046633;28;45257;-75
2022/11/09 04:17:57;;;;;;;1.92;1.15;;;16.80;60.80;;;;;;5046116;28;45220;-75
2022/11/09 04:20:24;;;;;;;1.10;1.00;;;16.70;60.70;;;;;;5046278;28;45317;-75
2022/11/09 04:22:56;;;;;;;1.35;1.10;;;16.70;60.80;;;;;;5046356;28;45325;-75
2022/11/09 04:25:23;;;;;;;1.20;1.10;;;16.70;60.70;;;;;;5046744;28;45264;-75
2022/11/09 04:27:54;;;;;;;1.30;1.20;;;16.80;60.80;;;;;;5046170;28;45415;-75
2022/11/09 04:30:22;;;;;;;1.67;1.35;;;16.80;60.70;;;;;;5046082;28;45281;-75
2022/11/09 04:32:48;;;;;;;1.02;0.95;;;16.80;60.60;;;;;;5046423;28;45250;-75
2022/11/09 04:35:15;;;;;;;2.08;1.10;;;16.80;60.60;;;;;;5046341;28;45313;-75
2022/11/09 04:37:42;;;;;;;1.20;1.10;;;16.80;60.60;;;;;;5045891;28;46351;-76
2022/11/09 04:40:12;;;;;;;1.08;0.98;;;16.80;60.60;;;;;;5044842;28;45238;-75
2022/11/09 04:42:39;;;;;;;1.23;1.13;;;16.80;60.60;;;;;;5046010;28;45277;-75
2022/11/09 04:45:07;;;;;;;1.00;1.00;;;16.80;60.70;;;;;;5047134;28;45340;-76
2022/11/09 04:47:34;;;;;;;1.30;1.20;;;16.70;60.70;;;;;;5065976;28;45335;-76
2022/11/09 04:50:01;;;;;;;1.23;1.13;;;16.70;60.70;;;;;;5065998;28;45198;-75
2022/11/09 04:52:28;;;;;;;1.15;0.90;;;16.80;60.70;;;;;;5066239;28;45269;-76
2022/11/09 04:54:54;;;;;;;1.35;1.25;;;16.70;60.70;;;;;;5066208;28;45356;-75
2022/11/09 04:57:23;;;;;;;1.58;1.20;;;16.80;60.70;;;;;;5065813;28;46436;-75
2022/11/09 04:59:50;;;;;;;1.35;1.23;;;16.80;61.30;;;;;;5065736;28;45345;-75
2022/11/09 05:02:17;;;;;;;1.15;1.05;;;16.80;60.60;;;;;;5055037;28;45218;-75
2022/11/09 05:04:44;;;;;;;1.10;1.10;;;16.80;60.60;;;;;;5045840;28;45411;-75
2022/11/09 05:07:11;;;;;;;1.20;1.08;;;16.80;60.60;;;;;;5045732;28;46689;-75
2022/11/09 05:09:38;;;;;;;1.20;1.10;;;16.80;60.50;;;;;;5045579;28;45222;-75
2022/11/09 05:12:05;;;;;;;1.10;1.00;;;16.80;60.50;;;;;;5045612;28;45187;-75
2022/11/09 05:14:33;;;;;;;2.47;1.10;;;16.80;60.60;;;;;;5045932;28;45400;-75
2022/11/09 05:17:00;;;;;;;1.52;1.10;;;16.80;60.50;;;;;;5045454;28;45533;-75
2022/11/09 05:19:27;;;;;;;1.17;1.08;;;16.80;60.50;;;;;;5045381;28;45318;-75
2022/11/09 05:21:54;;;;;;;1.25;1.15;;;16.80;60.70;;;;;;5045727;28;45196;-75
2022/11/09 05:24:20;;;;;;;1.15;1.08;;;16.80;60.50;;;;;;5045782;28;45246;-75
2022/11/09 05:26:47;;;;;;;1.10;1.00;;;16.80;60.60;;;;;;5045413;28;45280;-75
2022/11/09 05:29:14;;;;;;;1.20;1.10;;;16.80;60.60;;;;;;5045341;28;45403;-75
2022/11/09 05:31:44;;;;;;;0.90;0.90;;;16.80;60.60;;;;;;5045612;28;45377;-75
2022/11/09 05:34:12;;;;;;;1.13;1.10;;;16.80;60.70;;;;;;5045738;28;45250;-75
2022/11/09 05:36:39;;;;;;;1.70;1.00;;;16.70;60.70;;;;;;5045234;28;46379;-75
2022/11/09 05:39:06;;;;;;;0.80;0.80;;;16.70;60.70;;;;;;5045364;28;45313;-75
2022/11/09 05:41:33;;;;;;;1.20;1.00;;;16.70;60.60;;;;;;5045101;28;45417;-75
2022/11/09 05:44:00;;;;;;;1.40;1.30;;;16.80;60.80;;;;;;5045609;28;45287;-75
2022/11/09 05:46:27;;;;;;;0.98;0.98;;;16.80;60.70;;;;;;5057097;28;46423;-75
2022/11/09 05:48:56;;;;;;;1.13;1.02;;;16.80;60.70;;;;;;5065369;28;45330;-75
2022/11/09 05:51:23;;;;;;;1.88;1.00;;;16.70;60.70;;;;;;5068282;28;45373;-75
2022/11/09 05:53:50;;;;;;;0.90;0.90;;;16.80;60.60;;;;;;5069206;28;45373;-76
2022/11/09 05:56:17;;;;;;;1.00;1.00;;;16.80;60.70;;;;;;5068664;28;45214;-75
2022/11/09 05:58:44;;;;;;;1.30;1.00;;;16.80;60.70;;;;;;5068903;28;45213;-75
2022/11/09 06:01:12;;;;;;;0.90;0.90;;;16.80;60.60;;;;;;5067311;28;45364;-75
2022/11/09 06:03:39;;;;;;;0.93;0.93;;;16.80;60.60;;;;;;5049033;28;45357;-75
2022/11/09 06:06:07;;;;;;;1.13;0.98;;;16.80;60.70;;;;;;5048672;28;47217;-76
2022/11/09 06:08:34;;;;;;;0.95;0.95;;;16.80;60.60;;;;;;5048599;28;45282;-76
2022/11/09 06:11:02;;;;;;;1.13;1.10;;;16.80;60.60;;;;;;5048579;28;45305;-75
2022/11/09 06:13:29;;;;;;;0.80;0.80;;;16.80;60.60;;;;;;5048948;28;45354;-75
2022/11/09 06:15:56;;;;;;;0.80;0.80;;;16.80;61.30;;;;;;5048421;28;45322;-75
2022/11/09 06:18:23;;;;;;;1.35;1.05;;;16.80;60.50;;;;;;5048726;28;45177;-76
2022/11/09 06:20:52;;;;;;;0.98;0.82;;;16.80;60.50;;;;;;5048584;28;45306;-75
2022/11/09 06:23:24;;;;;;;1.23;1.02;;;16.80;60.50;;;;;;5049145;28;45543;-76
2022/11/09 06:25:51;;;;;;;1.63;1.05;;;16.80;60.50;;;;;;5048663;28;46677;-75
2022/11/09 06:28:18;;;;;;;1.80;1.00;;;16.80;61.20;;;;;;5048670;28;45258;-76
2022/11/09 06:30:45;;;;;;;1.83;1.13;;;16.80;60.50;;;;;;5048667;28;45220;-75
2022/11/09 06:33:12;;;;;;;1.02;1.02;;;16.80;61.30;;;;;;5049073;28;45231;-75
2022/11/09 06:35:39;;;;;;;1.15;1.05;;;16.80;60.60;;;;;;5048219;28;47112;-75
2022/11/09 06:38:06;;;;;;;0.85;0.85;;;16.80;60.60;;;;;;5047947;28;45297;-76
2022/11/09 06:40:35;;;;;;;1.23;1.10;;;16.80;60.70;;;;;;5047904;28;45325;-76
2022/11/09 06:43:02;;;;;;;1.90;1.20;;;16.80;60.70;;;;;;5048126;28;45198;-75
2022/11/09 06:45:30;;;;;;;1.00;0.90;;;16.80;60.60;;;;;;5051945;28;46430;-76
2022/11/09 06:47:56;;;;;;;1.30;1.20;;;16.80;60.60;;;;;;5068177;28;45300;-76
2022/11/09 06:50:23;;;;;;;1.00;1.00;;;16.80;60.60;;;;;;5068265;28;45246;-76
2022/11/09 06:52:50;;;;;;;1.00;1.00;;;16.80;61.40;;;;;;5068346;28;45186;-75
2022/11/09 06:55:17;;;;;;;1.10;1.00;;;16.80;60.80;;;;;;5067843;28;46413;-76
2022/11/09 06:57:46;;;;;;;1.10;1.00;;;16.80;61.50;;;;;;5067921;28;45266;-76
2022/11/09 07:00:14;;;;;;;1.00;0.82;;;16.70;60.70;;;;;;5067942;28;45364;-76
2022/11/09 07:02:42;;;;;;;1.42;1.05;;;16.70;60.70;;;;;;5053446;28;45215;-75
2022/11/09 07:05:10;;;;;;;1.60;1.10;;;16.70;60.90;;;;;;5047738;28;45405;-76
2022/11/09 07:07:37;;;;;;;1.10;1.00;;;16.70;60.80;;;;;;5048165;28;45438;-76
2022/11/09 07:10:05;;;;;;;1.27;1.17;;;16.80;60.80;;;;;;5048433;28;45255;-76
2022/11/09 07:12:33;;;;;;;1.00;0.90;;;16.70;60.80;;;;;;5048321;28;45354;-76
2022/11/09 07:15:01;;;;;;;1.00;1.00;;;16.70;60.80;;;;;;5047430;28;45219;-76
2022/11/09 07:17:30;;;;;;;1.30;1.20;;;16.70;60.80;;;;;;5047284;28;45303;-76
2022/11/09 07:19:56;;;;;;;1.13;0.95;;;16.80;60.90;;;;;;5047788;28;45218;-76
2022/11/09 07:22:23;;;;;;;1.15;0.90;;;16.70;60.80;;;;;;5047761;28;45571;-76
2022/11/09 07:24:50;;;;;;;1.23;1.10;;;16.70;60.80;;;;;;5048125;28;45271;-76
2022/11/09 07:27:17;;;;;;;0.90;0.90;;;16.70;60.80;;;;;;5047496;28;45300;-76
2022/11/09 07:29:44;;;;;;;1.15;1.13;;;16.70;61.00;;;;;;5047561;28;45301;-76
2022/11/09 07:32:12;;;;;;;1.30;1.10;;;16.70;61.00;;;;;;5047678;28;45241;-75
2022/11/09 07:34:39;;;;;;;1.13;1.02;;;16.70;61.00;;;;;;5047252;28;45553;-75
2022/11/09 07:37:06;;;;;;;1.08;1.02;;;16.70;60.90;;;;;;5047382;28;45371;-75
2022/11/09 07:39:33;;;;;;;1.02;0.90;;;16.70;60.90;;;;;;5047219;28;45238;-75
2022/11/09 07:42:00;;;;;;;1.00;0.90;;;16.70;60.90;;;;;;5047211;28;45460;-75
2022/11/09 07:44:27;;;;;;;1.10;1.00;;;16.70;61.00;;;;;;5047661;28;45496;-75
2022/11/09 07:46:54;;;;;;;1.23;0.80;;;16.70;61.60;;;;;;5062948;28;45261;-76
2022/11/09 07:49:22;;;;;;;1.08;0.98;;;16.70;60.90;;;;;;5067947;28;45262;-76
2022/11/09 07:51:49;;;;;;;1.00;1.00;;;16.80;60.90;;;;;;5067819;28;45320;-76
2022/11/09 07:54:16;;;;;;;1.50;1.30;;;16.80;60.90;;;;;;5066980;28;45266;-76
2022/11/09 07:56:43;;;;;;;0.80;0.80;;;16.80;60.90;;;;;;5067201;28;45247;-76
2022/11/09 07:59:10;;;;;;;1.42;1.00;;;16.80;60.90;;;;;;5067480;28;45208;-76
2022/11/09 08:01:36;;;;;;;1.00;0.80;;;16.80;60.90;;;;;;5061969;28;45454;-76
2022/11/09 08:04:05;;;;;;;1.13;1.02;;;16.80;61.00;;;;;;5047070;28;46723;-76
2022/11/09 08:06:33;;;;;;;0.90;0.90;;;16.80;60.90;;;;;;5046798;28;45279;-76
2022/11/09 08:09:00;;;;;;;1.10;1.00;;;16.80;61.00;;;;;;5046836;28;45247;-76
2022/11/09 08:11:27;;;;;;;0.90;0.90;;;16.80;61.00;;;;;;5046955;28;45412;-76
2022/11/09 08:13:54;;;;;;;1.35;1.05;;;16.80;61.00;;;;;;5046097;28;46412;-76
2022/11/09 08:16:21;;;;;;;0.88;0.88;;;16.80;61.00;;;;;;5046519;28;45307;-76
2022/11/09 08:18:49;;;;;;;0.80;0.80;;;16.80;61.00;;;;;;5046863;28;45202;-76
2022/11/09 08:21:17;;;;;;;1.23;1.20;;;16.80;61.00;;;;;;5047930;28;45379;-76
2022/11/09 08:23:46;;;;;;;2.15;1.05;;;16.80;61.00;;;;;;5046689;28;46343;-75
2022/11/09 08:26:13;;;;;;;0.90;0.90;;;16.80;61.10;;;;;;5046934;28;45319;-76
2022/11/09 08:28:40;;;;;;;0.95;0.95;;;16.80;61.10;;;;;;5046516;28;45235;-78
2022/11/09 08:31:07;;;;;;;0.85;0.85;;;16.80;61.10;;;;;;5046928;28;45306;-76
2022/11/09 08:33:35;;;;;;;1.35;0.98;;;16.80;61.10;;;;;;5045996;28;47359;-76
2022/11/09 08:36:07;;;;;;;0.80;0.80;;;16.90;61.20;;;;;;5046143;28;45329;-76
2022/11/09 08:38:34;;;;;;;1.00;0.90;;;16.90;61.20;;;;;;5046229;28;45297;-76
2022/11/09 08:41:03;;;;;;;1.20;1.02;;;16.90;61.20;;;;;;5046013;28;45538;-76
2022/11/09 08:43:29;;;;;;;0.93;0.93;;;16.90;61.20;;;;;;5046243;28;46398;-76
2022/11/09 08:45:56;;;;;;;1.55;0.93;;;16.90;61.10;;;;;;5054844;28;45301;-76
2022/11/09 08:48:23;;;;;;;1.20;1.10;;;16.90;61.10;;;;;;5067617;28;45388;-76
2022/11/09 08:50:52;;;;;;;1.38;0.80;;;17.00;61.10;;;;;;5067613;28;45297;-76
2022/11/09 08:53:19;;;;;;;1.10;1.00;;;17.00;60.90;;;;;;5066968;28;45209;-78
2022/11/09 08:55:45;;;;;;;1.10;1.00;;;17.00;60.80;;;;;;5067256;28;45181;-76
2022/11/09 08:58:14;;;;;;;0.98;0.95;;;17.10;60.70;;;;;;5067433;28;45315;-76
2022/11/09 09:00:41;;;;;;;1.00;1.00;;;17.00;60.70;;;;;;5067431;28;45520;-76
2022/11/09 09:03:07;;;;;;;0.70;0.70;;;17.10;60.80;;;;;;5048928;28;45354;-76
2022/11/09 09:05:35;;;;;;;0.88;0.88;;;17.10;60.70;;;;;;5046784;28;45223;-79
2022/11/09 09:08:02;;;;;;;1.00;0.90;;;17.10;60.80;;;;;;5047006;28;45312;-76
2022/11/09 09:10:28;;;;;;;2.05;0.90;;;17.10;60.70;;;;;;5046129;28;45510;-76
2022/11/09 09:12:55;;;;;;;0.80;0.80;;;17.10;60.70;;;;;;5046212;28;45301;-76
2022/11/09 09:15:23;;;;;;;1.00;1.00;;;17.10;60.80;;;;;;5046868;28;45199;-76
2022/11/09 09:17:50;;;;;;;1.70;1.17;;;17.10;60.80;;;;;;5046839;28;45187;-76
2022/11/09 09:20:17;;;;;;;0.95;0.85;;;17.20;60.90;;;;;;5046928;28;45377;-77
2022/11/09 09:22:45;;;;;;;1.70;0.90;;;17.20;60.90;;;;;;5046587;28;47350;-78
2022/11/09 09:25:11;;;;;;;1.58;1.08;;;17.20;60.80;;;;;;5045916;28;45312;-77
2022/11/09 09:27:38;;;;;;;0.80;0.80;;;17.20;60.80;;;;;;5046701;28;45258;-77
2022/11/09 09:30:06;;;;;;;1.20;1.10;;;17.20;60.80;;;;;;5046842;28;45172;-77
2022/11/09 09:32:34;;;;;;;1.33;1.10;;;17.20;60.80;;;;;;5046644;28;46490;-78
2022/11/09 09:35:01;;;;;;;2.03;1.30;;;17.20;60.80;;;;;;5046409;28;45302;-77
2022/11/09 09:37:28;;;;;;;2.10;1.10;;;17.20;60.90;;;;;;5046745;28;45262;-77
2022/11/09 09:39:55;;;;;;;2.03;0.90;;;17.20;61.00;;;;;;5046912;28;45413;-77
2022/11/09 09:42:25;;;;;;;1.60;1.00;;;17.20;61.00;;;;;;5046018;28;47601;-77
2022/11/09 09:44:54;;;;;;;1.52;1.30;;;17.20;61.00;;;;;;5046456;28;45239;-77
2022/11/09 09:47:23;;;;;;;2.50;1.20;;;17.30;61.00;;;;;;5065889;28;45199;-77
2022/11/09 09:49:54;;;;;;;2.17;1.40;;;17.30;61.00;;;;;;5066789;28;45293;-77
2022/11/09 09:52:22;;;;;;;2.38;1.35;;;17.30;61.10;;;;;;5066192;28;46378;-77
2022/11/09 09:54:52;;;;;;;3.45;1.55;;;17.30;61.10;;;;;;5066277;28;45235;-77
2022/11/09 09:57:20;;;;;;;2.00;1.65;;;17.30;60.90;;;;;;5066733;28;45185;-77
2022/11/09 09:59:48;;;;;;;2.13;1.63;;;17.30;60.90;;;;;;5066027;28;45460;-77
2022/11/09 10:02:20;;;;;;;3.75;2.00;;;17.30;61.00;;;;;;5055575;28;46840;-77
2022/11/09 10:04:47;;;;;;;2.10;1.90;;;17.30;60.90;;;;;;5046346;28;45459;-77
2022/11/09 10:07:18;;;;;;;4.03;1.80;;;17.30;60.90;;;;;;5046498;28;45223;-77
2022/11/09 10:09:56;;;;;;;1.85;1.75;;;17.30;61.00;;;;;;5046491;28;45456;-76
2022/11/09 10:12:28;;;;;;;4.03;1.85;;;17.40;60.90;;;;;;5045801;28;45345;-76
2022/11/09 10:15:11;;;;;;;2.90;1.50;;;17.40;61.20;;;;;;5046385;28;45229;-77
2022/11/09 10:17:41;;;;;;;3.63;2.03;;;17.40;61.00;;;;;;5046549;28;45147;-77
2022/11/09 10:20:23;;;;;;;1.70;1.60;;;17.40;61.00;;;;;;5046634;28;45287;-78
2022/11/09 10:22:57;;;;;;;1.80;1.65;;;17.40;61.00;;;;;;5046222;28;45574;-77
2022/11/09 10:25:25;;;;;;;4.78;2.45;;;17.40;60.90;;;;;;5045945;28;45162;-77
2022/11/09 10:27:53;;;;;;;2.17;1.90;;;17.40;61.20;;;;;;5046392;28;45281;-77
2022/11/09 10:30:21;;;;;;;3.47;2.10;;;17.40;61.10;;;;;;5046269;28;45446;-78
2022/11/09 10:32:50;;;;;;;2.40;2.17;;;17.40;60.90;;;;;;5045737;28;46475;-78
2022/11/09 10:35:19;;;;;;;2.53;1.90;;;17.40;61.00;;;;;;5046254;28;45349;-77
2022/11/09 10:37:47;;;;;;;2.15;1.75;;;17.40;61.00;;;;;;5047750;28;45457;-78
2022/11/09 10:40:18;;;;;;;5.30;2.53;;;17.40;61.00;;;;;;5049636;28;45329;-77
2022/11/09 10:42:46;;;;;;;3.50;2.15;;;17.40;61.20;;;;;;5048855;28;45397;-77
2022/11/09 10:45:21;;;;;;;2.72;2.10;;;17.40;61.20;;;;;;5050596;28;45343;-76
2022/11/09 10:47:48;;;;;;;2.53;2.30;;;17.40;61.20;;;;;;5069074;28;45394;-76
2022/11/09 10:50:22;;;;;;;5.50;2.42;;;17.40;61.10;;;;;;5069321;28;45238;-76
2022/11/09 10:52:48;;;;;;;4.00;2.35;;;17.40;61.20;;;;;;5068926;28;45270;-77
2022/11/09 10:55:22;;;;;;;3.72;2.15;;;17.40;61.30;;;;;;5069150;28;45182;-77
2022/11/09 10:57:57;;;;;;;5.18;2.38;;;17.40;61.30;;;;;;5070613;28;45305;-77
2022/11/09 11:00:24;;;;;;;2.88;2.20;;;17.40;61.40;;;;;;5069512;28;45456;-77
2022/11/09 11:02:52;;;;;;;4.20;2.50;;;17.40;62.10;;;;;;5053110;28;46427;-77
2022/11/09 11:05:37;;;;;;;2.42;1.80;;;17.50;61.20;;;;;;5048771;28;45294;-76
2022/11/09 11:08:21;;;;;;;4.70;2.45;;;17.40;61.20;;;;;;5049014;28;45286;-77
2022/11/09 11:10:50;;;;;;;2.42;2.15;;;17.40;61.30;;;;;;5049154;28;45285;-76
2022/11/09 11:13:23;;;;;;;3.30;2.10;;;17.50;61.40;;;;;;5048723;28;45526;-76
2022/11/09 11:15:50;;;;;;;3.33;2.00;;;17.40;61.30;;;;;;5048457;28;45356;-76
2022/11/09 11:18:22;;;;;;;4.47;2.20;;;17.50;61.60;;;;;;5048653;28;45330;-76
2022/11/09 11:20:51;;;;;;;3.85;2.05;;;17.50;61.70;;;;;;5048705;28;45277;-76
2022/11/09 11:23:19;;;;;;;2.75;2.10;;;17.50;61.60;;;;;;5048088;28;47473;-76
2022/11/09 11:26:01;;;;;;;2.92;2.13;;;17.50;61.80;;;;;;5048426;28;45262;-76
2022/11/09 11:28:33;;;;;;;2.55;2.28;;;17.50;61.90;;;;;;5048684;28;45250;-77
2022/11/09 11:30:59;;;;;;;2.38;2.05;;;17.50;61.70;;;;;;5048670;28;45285;-76
2022/11/09 11:33:28;;;;;;;2.28;1.98;;;17.50;61.40;;;;;;5048252;28;45297;-76
2022/11/09 11:35:56;;;;;;;2.28;1.95;;;17.50;61.80;;;;;;5047705;28;45282;-76
2022/11/09 11:38:27;;;;;;;2.58;2.20;;;17.50;61.80;;;;;;5047863;28;45381;-77
2022/11/09 11:41:01;;;;;;;3.92;2.10;;;17.50;61.90;;;;;;5048037;28;45191;-76
2022/11/09 11:43:39;;;;;;;3.75;2.20;;;17.50;61.60;;;;;;5047861;28;46870;-76
2022/11/09 11:46:11;;;;;;;2.30;2.08;;;17.50;62.50;;;;;;5057173;28;45275;-76
2022/11/09 11:49:01;;;;;;;2.22;2.03;;;17.50;62.00;;;;;;5067852;28;45246;-76
2022/11/09 11:51:32;;;;;;;4.03;2.08;;;17.50;61.80;;;;;;5067724;28;45352;-76
2022/11/09 11:54:06;;;;;;;4.07;2.15;;;17.50;61.70;;;;;;5067912;28;45348;-76
2022/11/09 11:56:36;;;;;;;2.88;1.80;;;17.50;61.90;;;;;;5068244;28;45340;-76
2022/11/09 11:59:28;;;;;;;3.95;2.10;;;17.50;62.00;;;;;;5068488;28;45328;-76
2022/11/09 12:02:03;;;;;;;1.88;1.77;;;17.50;62.10;;;;;;5051182;28;45279;-77
2022/11/09 12:04:41;;;;;;;2.22;1.90;;;17.50;62.70;;;;;;5046856;28;45318;-76
2022/11/09 12:07:19;;;;;;;1.90;1.55;;;17.50;62.00;;;;;;5058324;28;45424;-75
2022/11/09 12:10:13;;;;;;;3.00;2.00;;;17.50;61.90;;;;;;5065573;28;45298;-75
2022/11/09 12:12:44;;;;;;;4.65;2.50;;;17.50;62.00;;;;;;5067475;28;45690;-76
2022/11/09 12:15:29;;;;;;;2.97;1.92;;;17.50;61.80;;;;;;5068035;28;46468;-76
2022/11/09 12:18:02;;;;;;;2.90;2.42;;;17.50;62.00;;;;;;5068125;28;45205;-76
2022/11/09 12:20:32;;;;;;;4.40;2.45;;;17.50;62.00;;;;;;5067654;28;45441;-76
2022/11/09 12:23:24;;;;;;;4.75;2.72;;;17.50;61.90;;;;;;5067722;28;45473;-75
2022/11/09 12:25:55;;;;;;;3.42;2.05;;;17.50;61.90;;;;;;5067306;28;45738;-76
2022/11/09 12:28:54;;;;;;;2.10;1.80;;;17.50;62.00;;;;;;5067660;28;45316;-76
2022/11/09 12:31:26;;;;;;;3.45;2.00;;;17.50;62.00;;;;;;5067600;28;45275;-76
2022/11/09 12:33:57;;;;;;;3.15;2.05;;;17.50;61.90;;;;;;5068091;28;45274;-77
2022/11/09 12:36:26;;;;;;;3.35;2.13;;;17.50;61.90;;;;;;5068744;28;46775;-77
2022/11/09 12:38:58;;;;;;;4.57;1.90;;;17.50;61.80;;;;;;5069559;28;45311;-77
2022/11/09 12:41:27;;;;;;;3.75;2.40;;;17.50;61.80;;;;;;5068514;28;45287;-76
2022/11/09 12:43:58;;;;;;;2.53;2.30;;;17.50;61.90;;;;;;5067854;28;45412;-76
2022/11/09 12:46:27;;;;;;;3.08;1.95;;;17.50;61.80;;;;;;5067103;28;47326;-77
2022/11/09 12:48:54;;;;;;;2.25;1.90;;;17.50;61.70;;;;;;5067387;28;45282;-77
2022/11/09 12:51:21;;;;;;;3.42;1.95;;;17.50;61.70;;;;;;5068292;28;45288;-76
2022/11/09 12:53:48;;;;;;;3.45;2.20;;;17.50;61.70;;;;;;5066638;28;45397;-77
2022/11/09 12:56:17;;;;;;;3.53;1.70;;;17.50;61.50;;;;;;5066972;28;47441;-76